Time;durP1;ratioP1;P1;durP2;ratioP2;P2;SDS_P1;SDS_P2;PMS_P1;PMS_P2;Temp;Humidity;BMP_temperature;BMP_pressure;BME280_temperature;BME280_humidity;BME280_pressure;Samples;Min_cycle;Max_cycle;Signal;HPM_P1;HPM_P2
2022/08/20 00:01:57;;;;;;;;;;;16.10;99.90;;;;;;5092372;28;19916;-73
2022/08/20 00:04:23;;;;;;;;;;;16.10;99.90;;;;;;5094027;28;19915;-73
2022/08/20 00:06:48;;;;;;;;;;;16.10;99.90;;;;;;5092287;28;19908;-73
2022/08/20 00:09:14;;;;;;;;;;;16.10;99.90;;;;;;5093225;28;20372;-73
2022/08/20 00:11:40;;;;;;;;;;;16.10;99.90;;;;;;5092655;28;19931;-73
2022/08/20 00:14:05;;;;;;;;;;;16.10;99.90;;;;;;5092167;28;20242;-73
2022/08/20 00:16:32;;;;;;;;;;;16.10;99.90;;;;;;5093434;28;19970;-73
2022/08/20 00:18:58;;;;;;;;;;;16.20;99.90;;;;;;5091487;28;19959;-73
2022/08/20 00:21:24;;;;;;;;;;;16.20;99.90;;;;;;5093323;28;19955;-73
2022/08/20 00:23:51;;;;;;;;;;;16.20;99.90;;;;;;5092097;28;19958;-72
2022/08/20 00:26:17;;;;;;;;;;;16.20;99.90;;;;;;5092973;28;19912;-73
2022/08/20 00:28:43;;;;;;;;;;;16.30;99.90;;;;;;5092491;28;20364;-73
2022/08/20 00:31:10;;;;;;;;;;;16.30;99.90;;;;;;5092666;28;19909;-73
2022/08/20 00:33:37;;;;;;;;;;;16.30;99.90;;;;;;5092324;28;20013;-74
2022/08/20 00:36:05;;;;;;;;;;;16.30;99.90;;;;;;5092102;28;19920;-73
2022/08/20 00:38:32;;;;;;;;;;;16.30;99.90;;;;;;5092465;28;20371;-72
2022/08/20 00:40:58;;;;;;;;;;;16.20;99.90;;;;;;5092297;28;19912;-73
2022/08/20 00:43:29;;;;;;;;;;;16.20;99.90;;;;;;5092522;28;19999;-73
2022/08/20 00:45:56;;;;;;;;;;;16.20;99.90;;;;;;5092009;28;19908;-73
2022/08/20 00:48:31;;;;;;;;;;;16.20;99.90;;;;;;5092465;28;20361;-73
2022/08/20 00:51:09;;;;;;;;;;;16.20;99.90;;;;;;5091992;28;20088;-73
2022/08/20 00:53:36;;;;;;;;;;;16.10;99.90;;;;;;5092024;28;19908;-73
2022/08/20 00:56:02;;;;;;;;;;;16.20;99.90;;;;;;5092119;28;19978;-73
2022/08/20 00:58:28;;;;;;;;;;;16.20;99.90;;;;;;5092551;28;19971;-73
2022/08/20 01:00:54;;;;;;;;;;;16.20;99.90;;;;;;5091485;28;19947;-73
2022/08/20 01:03:19;;;;;;;;;;;16.20;99.90;;;;;;5092550;28;19908;-73
2022/08/20 01:05:47;;;;;;;;;;;16.30;99.90;;;;;;5091166;28;19931;-74
2022/08/20 01:08:15;;;;;;;;;;;16.30;99.90;;;;;;5091959;28;19908;-73
2022/08/20 01:10:43;;;;;;;;;;;16.30;99.90;;;;;;5091313;28;19908;-73
2022/08/20 01:13:11;;;;;;;;;;;16.30;99.90;;;;;;5095859;28;19908;-72
2022/08/20 01:15:39;;;;;;;;;;;16.30;99.90;;;;;;5095515;28;19920;-72
2022/08/20 01:18:05;;;;;;;;;;;16.30;99.90;;;;;;5096034;28;20369;-74
2022/08/20 01:20:34;;;;;;;;;;;16.30;99.90;;;;;;5095630;28;19960;-72
2022/08/20 01:23:31;;;;;;;;;;;16.30;99.90;;;;;;5095729;28;19959;-72
2022/08/20 01:26:08;;;;;;;;;;;16.30;99.90;;;;;;5094312;28;19912;-73
2022/08/20 01:28:45;;;;;;;;;;;16.40;99.90;;;;;;5096080;28;19908;-73
2022/08/20 01:31:13;;;;;;;;;;;16.30;99.90;;;;;;5096781;28;19951;-73
2022/08/20 01:33:39;;;;;;;;;;;16.30;99.90;;;;;;5097236;28;19920;-72
2022/08/20 01:36:05;;;;;;;;;;;16.30;99.90;;;;;;5095586;28;19916;-72
2022/08/20 01:38:31;;;;;;;;;;;16.40;99.90;;;;;;5095565;28;20391;-73
2022/08/20 01:41:15;;;;;;;;;;;16.40;99.90;;;;;;5095081;28;20281;-74
2022/08/20 01:43:40;;;;;;;;;;;16.40;99.90;;;;;;5095099;28;20266;-74
2022/08/20 01:46:08;;;;;;;;;;;16.50;99.90;;;;;;5095694;28;19964;-73
2022/08/20 01:48:35;;;;;;;;;;;16.50;99.90;;;;;;5095334;28;19930;-72
2022/08/20 01:51:03;;;;;;;;;;;16.50;99.90;;;;;;5094712;28;19915;-72
2022/08/20 01:53:34;;;;;;;;;;;16.50;99.90;;;;;;5095355;28;19981;-72
2022/08/20 01:56:01;;;;;;;;;;;16.50;99.90;;;;;;5094653;28;20007;-72
2022/08/20 01:58:28;;;;;;;;;;;16.50;99.90;;;;;;5095577;28;19912;-72
2022/08/20 02:00:55;;;;;;;;;;;16.50;99.90;;;;;;5094793;28;19908;-72
2022/08/20 02:03:21;;;;;;;;;;;16.60;99.90;;;;;;5095256;28;19908;-72
2022/08/20 02:05:46;;;;;;;;;;;16.60;99.90;;;;;;5095004;28;20399;-73
2022/08/20 02:08:12;;;;;;;;;;;16.60;99.90;;;;;;5094675;28;19915;-72
2022/08/20 02:10:37;;;;;;;;;;;16.60;99.90;;;;;;5095508;28;20316;-72
2022/08/20 02:13:04;;;;;;;;;;;16.60;99.90;;;;;;5095200;28;19955;-72
2022/08/20 02:15:30;;;;;;;;;;;16.60;99.90;;;;;;5095507;28;19922;-72
2022/08/20 02:17:56;;;;;;;;;;;16.60;99.90;;;;;;5093815;28;20006;-72
2022/08/20 02:20:26;;;;;;;;;;;16.60;99.90;;;;;;5095691;28;19908;-73
2022/08/20 02:22:53;;;;;;;;;;;16.60;99.90;;;;;;5094590;28;19908;-73
2022/08/20 02:25:20;;;;;;;;;;;16.60;99.90;;;;;;5095403;28;19908;-73
2022/08/20 02:27:47;;;;;;;;;;;16.50;99.90;;;;;;5094928;28;19908;-72
2022/08/20 02:30:19;;;;;;;;;;;16.60;99.90;;;;;;5095725;28;20005;-72
2022/08/20 02:32:45;;;;;;;;;;;16.60;99.90;;;;;;5094609;28;19908;-73
2022/08/20 02:35:12;;;;;;;;;;;16.60;99.90;;;;;;5094819;28;19927;-72
2022/08/20 02:37:39;;;;;;;;;;;16.60;99.90;;;;;;5094992;28;19908;-72
2022/08/20 02:40:06;;;;;;;;;;;16.50;99.90;;;;;;5094658;28;19915;-72
2022/08/20 02:42:33;;;;;;;;;;;16.60;99.90;;;;;;5095105;28;20010;-73
2022/08/20 02:44:58;;;;;;;;;;;16.60;99.90;;;;;;5094310;28;20341;-72
2022/08/20 02:47:26;;;;;;;;;;;16.60;99.90;;;;;;5093546;28;19962;-72
2022/08/20 02:49:55;;;;;;;;;;;16.60;99.90;;;;;;5094793;28;19923;-73
2022/08/20 02:52:20;;;;;;;;;;;16.60;99.90;;;;;;5094999;28;19915;-72
2022/08/20 02:54:47;;;;;;;;;;;16.50;99.90;;;;;;5094207;28;19920;-73
2022/08/20 02:57:14;;;;;;;;;;;16.50;99.90;;;;;;5094628;28;19908;-72
2022/08/20 02:59:39;;;;;;;;;;;16.40;99.90;;;;;;5094998;28;19908;-72
2022/08/20 03:02:05;;;;;;;;;;;16.40;99.90;;;;;;5093986;28;19977;-72
2022/08/20 03:04:30;;;;;;;;;;;16.40;99.90;;;;;;5094735;28;19909;-72
2022/08/20 03:06:57;;;;;;;;;;;16.40;99.90;;;;;;5093957;28;20254;-72
2022/08/20 03:09:22;;;;;;;;;;;16.30;99.90;;;;;;5094676;28;19911;-73
2022/08/20 03:11:48;;;;;;;;;;;16.30;99.90;;;;;;5093783;28;19952;-73
2022/08/20 03:14:13;;;;;;;;;;;16.30;99.90;;;;;;5093247;28;19915;-72
2022/08/20 03:16:39;;;;;;;;;;;16.30;99.90;;;;;;5094462;28;20019;-72
2022/08/20 03:19:05;;;;;;;;;;;16.20;99.90;;;;;;5093930;28;19904;-73
2022/08/20 03:21:31;;;;;;;;;;;16.20;99.90;;;;;;5094347;28;19908;-72
2022/08/20 03:23:56;;;;;;;;;;;16.20;99.90;;;;;;5093943;28;19935;-72
2022/08/20 03:26:22;;;;;;;;;;;16.20;99.90;;;;;;5094287;28;20357;-72
2022/08/20 03:28:47;;;;;;;;;;;16.20;99.90;;;;;;5093482;28;19955;-72
2022/08/20 03:31:14;;;;;;;;;;;16.20;99.90;;;;;;5094497;28;19908;-73
2022/08/20 03:33:40;;;;;;;;;;;16.20;99.90;;;;;;5094130;28;20003;-72
2022/08/20 03:36:06;;;;;;;;;;;16.20;99.90;;;;;;5092139;28;20010;-72
2022/08/20 03:38:32;;;;;;;;;;;16.20;99.90;;;;;;5093871;28;19911;-72
2022/08/20 03:40:58;;;;;;;;;;;16.20;99.90;;;;;;5093508;28;19908;-72
2022/08/20 03:43:23;;;;;;;;;;;16.20;99.90;;;;;;5094341;28;19915;-72
2022/08/20 03:45:49;;;;;;;;;;;16.20;99.90;;;;;;5093472;28;19943;-73
2022/08/20 03:48:17;;;;;;;;;;;16.20;99.90;;;;;;5093935;28;19908;-72
2022/08/20 03:50:43;;;;;;;;;;;16.20;99.90;;;;;;5093922;28;19929;-72
2022/08/20 03:53:09;;;;;;;;;;;16.20;99.90;;;;;;5093580;28;19990;-72
2022/08/20 03:55:35;;;;;;;;;;;16.20;99.90;;;;;;5093506;28;19916;-72
2022/08/20 03:58:02;;;;;;;;;;;16.20;99.90;;;;;;5093289;28;19961;-73
2022/08/20 04:00:29;;;;;;;;;;;16.20;99.90;;;;;;5093610;28;19915;-73
2022/08/20 04:02:56;;;;;;;;;;;16.10;99.90;;;;;;5092869;28;20273;-73
2022/08/20 04:05:23;;;;;;;;;;;16.20;99.90;;;;;;5093554;28;20350;-72
2022/08/20 04:07:49;;;;;;;;;;;16.20;99.90;;;;;;5093190;28;19914;-73
2022/08/20 04:10:15;;;;;;;;;;;16.20;99.90;;;;;;5093456;28;19908;-72
2022/08/20 04:12:40;;;;;;;;;;;16.20;99.90;;;;;;5093531;28;19915;-72
2022/08/20 04:15:08;;;;;;;;;;;16.10;99.90;;;;;;5092877;28;20019;-72
2022/08/20 04:17:35;;;;;;;;;;;16.10;99.90;;;;;;5093476;28;19999;-72
2022/08/20 04:20:02;;;;;;;;;;;16.10;99.90;;;;;;5092880;28;19912;-72
2022/08/20 04:22:27;;;;;;;;;;;16.10;99.90;;;;;;5093340;28;19912;-72
2022/08/20 04:24:53;;;;;;;;;;;16.00;99.90;;;;;;5091501;28;19953;-73
2022/08/20 04:27:20;;;;;;;;;;;16.00;99.90;;;;;;5093049;28;20000;-72
2022/08/20 04:29:45;;;;;;;;;;;15.90;99.90;;;;;;5093093;28;20011;-72
2022/08/20 04:32:11;;;;;;;;;;;16.00;99.90;;;;;;5092633;28;19940;-72
2022/08/20 04:34:37;;;;;;;;;;;15.90;99.90;;;;;;5091559;28;19943;-73
2022/08/20 04:37:03;;;;;;;;;;;15.90;99.90;;;;;;5092544;28;19962;-72
2022/08/20 04:39:28;;;;;;;;;;;15.90;99.90;;;;;;5093094;28;19909;-72
2022/08/20 04:41:54;;;;;;;;;;;15.90;99.90;;;;;;5092548;28;20406;-73
2022/08/20 04:44:21;;;;;;;;;;;15.90;99.90;;;;;;5093152;28;19998;-72
2022/08/20 04:46:47;;;;;;;;;;;15.90;99.90;;;;;;5092916;28;19912;-72
2022/08/20 04:49:13;;;;;;;;;;;15.90;99.90;;;;;;5092524;28;20365;-73
2022/08/20 04:51:38;;;;;;;;;;;15.90;99.90;;;;;;5093367;28;19908;-72
2022/08/20 04:54:04;;;;;;;;;;;15.90;99.90;;;;;;5092292;28;19915;-73
2022/08/20 04:56:33;;;;;;;;;;;15.90;99.90;;;;;;5092851;28;20007;-73
2022/08/20 04:59:00;;;;;;;;;;;15.80;99.90;;;;;;5092176;28;20014;-73
2022/08/20 05:01:26;;;;;;;;;;;15.80;99.90;;;;;;5093030;28;20009;-73
2022/08/20 05:03:54;;;;;;;;;;;15.80;99.90;;;;;;5092325;28;19908;-74
2022/08/20 05:06:20;;;;;;;;;;;15.80;99.90;;;;;;5092894;28;19955;-73
2022/08/20 05:08:46;;;;;;;;;;;15.70;99.90;;;;;;5092796;28;19915;-73
2022/08/20 05:11:13;;;;;;;;;;;15.70;99.90;;;;;;5091602;28;19920;-73
2022/08/20 05:13:39;;;;;;;;;;;15.70;99.90;;;;;;5092553;28;20281;-74
2022/08/20 05:16:04;;;;;;;;;;;15.70;99.90;;;;;;5092313;28;19919;-73
2022/08/20 05:18:34;;;;;;;;;;;15.70;99.90;;;;;;5092770;28;19912;-73
2022/08/20 05:21:04;;;;;;;;;;;15.70;99.90;;;;;;5092080;28;19908;-73
2022/08/20 05:23:31;;;;;;;;;;;15.70;99.90;;;;;;5092355;28;20419;-73
2022/08/20 05:25:57;;;;;;;;;;;15.70;99.90;;;;;;5092517;28;19912;-73
2022/08/20 05:28:24;;;;;;;;;;;15.70;99.90;;;;;;5093071;28;20007;-73
2022/08/20 05:30:51;;;;;;;;;;;15.70;99.90;;;;;;5092695;28;19908;-73
2022/08/20 05:33:19;;;;;;;;;;;15.70;99.90;;;;;;5091827;28;19912;-73
2022/08/20 05:35:46;;;;;;;;;;;15.70;99.90;;;;;;5092487;28;20361;-73
2022/08/20 05:38:13;;;;;;;;;;;15.70;99.90;;;;;;5092078;28;19920;-73
2022/08/20 05:40:40;;;;;;;;;;;15.80;99.90;;;;;;5092602;28;19915;-73
2022/08/20 05:43:06;;;;;;;;;;;15.80;99.90;;;;;;5092039;28;19908;-73
2022/08/20 05:45:32;;;;;;;;;;;15.80;99.90;;;;;;5091318;28;20352;-73
2022/08/20 05:47:58;;;;;;;;;;;15.90;99.90;;;;;;5091990;28;19908;-73
2022/08/20 05:50:24;;;;;;;;;;;15.90;99.90;;;;;;5092195;28;20258;-73
2022/08/20 05:52:50;;;;;;;;;;;15.90;99.90;;;;;;5092453;28;19914;-73
2022/08/20 05:55:15;;;;;;;;;;;15.80;99.90;;;;;;5091757;28;19908;-73
2022/08/20 05:57:41;;;;;;;;;;;15.90;99.90;;;;;;5092321;28;19918;-72
2022/08/20 06:00:09;;;;;;;;;;;15.90;99.90;;;;;;5094996;28;19912;-73
2022/08/20 06:05:18;;;;;;;;;;;15.90;99.90;;;;;;5095109;28;19915;-73
2022/08/20 06:07:44;;;;;;;;;;;16.00;99.90;;;;;;5095497;28;19909;-73
2022/08/20 06:10:10;;;;;;;;;;;16.00;99.90;;;;;;5094952;28;19961;-73
2022/08/20 06:12:36;;;;;;;;;;;16.00;99.90;;;;;;5095246;28;19911;-72
2022/08/20 06:15:02;;;;;;;;;;;16.00;99.90;;;;;;5094917;28;20345;-72
2022/08/20 06:17:28;;;;;;;;;;;16.00;99.90;;;;;;5095275;28;19994;-72
2022/08/20 06:19:53;;;;;;;;;;;16.10;99.90;;;;;;5095505;28;20341;-72
2022/08/20 06:22:19;;;;;;;;;;;16.10;99.90;;;;;;5094731;28;20357;-73
2022/08/20 06:24:45;;;;;;;;;;;16.20;99.90;;;;;;5094077;28;19951;-73
2022/08/20 06:27:13;;;;;;;;;;;16.20;99.90;;;;;;5094612;28;19916;-73
2022/08/20 06:29:38;;;;;;;;;;;16.30;99.90;;;;;;5095445;28;19930;-72
2022/08/20 06:32:04;;;;;;;;;;;16.30;99.90;;;;;;5094627;28;20345;-73
2022/08/20 06:34:30;;;;;;;;;;;16.30;99.90;;;;;;5094713;28;19973;-72
2022/08/20 06:36:56;;;;;;;;;;;16.40;99.90;;;;;;5095218;28;19912;-72
2022/08/20 06:39:22;;;;;;;;;;;16.40;99.90;;;;;;5093360;28;19909;-72
2022/08/20 06:41:48;;;;;;;;;;;16.40;99.90;;;;;;5094773;28;20458;-72
2022/08/20 06:44:13;;;;;;;;;;;16.50;99.90;;;;;;5094358;28;19908;-73
2022/08/20 06:46:39;;;;;;;;;;;16.50;99.90;;;;;;5093996;28;19915;-72
2022/08/20 06:49:06;;;;;;;;;;;16.50;99.90;;;;;;5094300;28;20376;-73
2022/08/20 06:51:32;;;;;;;;;;;16.40;99.90;;;;;;5095293;28;19954;-72
2022/08/20 06:53:57;;;;;;;;;;;16.40;99.90;;;;;;5094827;28;19912;-72
2022/08/20 06:56:23;;;;;;;;;;;16.50;99.90;;;;;;5094335;28;20249;-72
2022/08/20 06:58:48;;;;;;;;;;;16.50;99.90;;;;;;5094823;28;19916;-73
2022/08/20 07:01:18;;;;;;;;;;;16.40;99.90;;;;;;5094642;28;19915;-72
2022/08/20 07:03:43;;;;;;;;;;;16.40;99.90;;;;;;5094428;28;20372;-71
2022/08/20 07:06:09;;;;;;;;;;;16.40;99.90;;;;;;5093740;28;19944;-73
2022/08/20 07:08:35;;;;;;;;;;;16.40;99.90;;;;;;5094522;28;20003;-73
2022/08/20 07:11:01;;;;;;;;;;;16.40;99.90;;;;;;5093890;28;19939;-73
2022/08/20 07:13:27;;;;;;;;;;;16.40;99.90;;;;;;5094567;28;19919;-72
2022/08/20 07:15:53;;;;;;;;;;;16.40;99.90;;;;;;5094533;28;19955;-73
2022/08/20 07:18:18;;;;;;;;;;;16.40;99.90;;;;;;5092526;28;19912;-73
2022/08/20 07:20:44;;;;;;;;;;;16.40;99.90;;;;;;5094336;28;19947;-73
2022/08/20 07:23:13;;;;;;;;;;;16.40;99.90;;;;;;5093545;28;19909;-73
2022/08/20 07:25:39;;;;;;;;;;;16.50;99.90;;;;;;5094364;28;19999;-73
2022/08/20 07:28:11;;;;;;;;;;;16.50;99.90;;;;;;5093741;28;19908;-74
2022/08/20 07:33:21;;;;;;;;;;;16.60;99.90;;;;;;5093330;28;19969;-73
2022/08/20 07:35:47;;;;;;;;;;;16.70;99.90;;;;;;5093845;28;19912;-73
2022/08/20 07:38:16;;;;;;;;;;;16.80;99.90;;;;;;5093442;28;20042;-73
2022/08/20 07:40:42;;;;;;;;;;;16.70;99.90;;;;;;5093976;28;19916;-73
2022/08/20 07:43:09;;;;;;;;;;;16.80;99.90;;;;;;5092991;28;19909;-74
2022/08/20 07:45:36;;;;;;;;;;;16.70;99.90;;;;;;5093427;28;19908;-73
2022/08/20 07:48:06;;;;;;;;;;;16.70;99.90;;;;;;5092525;28;19912;-73
2022/08/20 07:50:32;;;;;;;;;;;16.70;99.90;;;;;;5093835;28;19912;-73
2022/08/20 07:52:59;;;;;;;;;;;16.70;99.90;;;;;;5093642;28;20268;-73
2022/08/20 07:55:24;;;;;;;;;;;16.80;99.90;;;;;;5092813;28;19909;-73
2022/08/20 07:57:50;;;;;;;;;;;17.00;99.90;;;;;;5093350;28;19912;-72
2022/08/20 08:00:17;;;;;;;;;;;17.30;99.90;;;;;;5093144;28;19958;-73
2022/08/20 08:02:43;;;;;;;;;;;17.50;99.90;;;;;;5093758;28;19923;-72
2022/08/20 08:05:09;;;;;;;;;;;17.70;99.90;;;;;;5092947;28;19912;-72
2022/08/20 08:07:35;;;;;;;;;;;17.90;99.90;;;;;;5093716;28;20242;-74
2022/08/20 08:10:01;;;;;;;;;;;18.10;99.90;;;;;;5093080;28;19931;-73
2022/08/20 08:12:31;;;;;;;;;;;18.30;99.90;;;;;;5092682;28;19912;-73
2022/08/20 08:14:57;;;;;;;;;;;18.40;99.90;;;;;;5093352;28;20436;-73
2022/08/20 08:17:23;;;;;;;;;;;18.60;99.90;;;;;;5092383;28;19987;-73
2022/08/20 08:19:49;;;;;;;;;;;18.70;99.90;;;;;;5093169;28;20406;-73
2022/08/20 08:22:15;;;;;;;;;;;18.80;99.90;;;;;;5092150;28;20357;-74
2022/08/20 08:24:42;;;;;;;;;;;19.00;99.90;;;;;;5093111;28;19908;-73
2022/08/20 08:27:08;;;;;;;;;;;19.00;99.90;;;;;;5092196;28;19908;-73
2022/08/20 08:29:34;;;;;;;;;;;19.10;99.90;;;;;;5093627;28;20019;-73
2022/08/20 08:32:04;;;;;;;;;;;19.30;99.90;;;;;;5092160;28;19999;-73
2022/08/20 08:34:34;;;;;;;;;;;19.40;99.90;;;;;;5089974;28;19924;-73
2022/08/20 08:37:01;;;;;;;;;;;19.40;99.90;;;;;;5092717;28;19916;-73
2022/08/20 08:39:31;;;;;;;;;;;19.40;99.90;;;;;;5091378;28;19916;-73
2022/08/20 08:41:57;;;;;;;;;;;19.40;99.90;;;;;;5092525;28;19916;-73
2022/08/20 08:44:23;;;;;;;;;;;19.60;99.90;;;;;;5092241;28;19908;-73
2022/08/20 08:46:56;;;;;;;;;;;19.60;99.90;;;;;;5092679;28;20266;-73
2022/08/20 08:49:25;;;;;;;;;;;19.70;99.90;;;;;;5092390;28;19908;-72
2022/08/20 08:51:55;;;;;;;;;;;19.80;99.90;;;;;;5092515;28;20285;-72
2022/08/20 08:54:23;;;;;;;;;;;19.90;99.90;;;;;;5092370;28;19951;-73
2022/08/20 08:56:49;;;;;;;;;;;20.10;99.90;;;;;;5093131;28;19957;-73
2022/08/20 08:59:15;;;;;;;;;;;20.00;99.90;;;;;;5092121;28;20002;-73
2022/08/20 09:01:45;;;;;;;;;;;20.00;99.90;;;;;;5092263;28;20315;-73
2022/08/20 09:04:15;;;;;;;;;;;20.10;99.90;;;;;;5092448;28;19916;-72
2022/08/20 09:06:42;;;;;;;;;;;20.20;99.90;;;;;;5091612;28;19908;-72
2022/08/20 09:09:14;;;;;;;;;;;20.30;99.90;;;;;;5092778;28;19959;-73
2022/08/20 09:11:44;;;;;;;;;;;20.30;99.90;;;;;;5092545;28;20203;-73
2022/08/20 09:14:09;;;;;;;;;;;20.30;99.90;;;;;;5092700;28;19915;-73
2022/08/20 09:16:35;;;;;;;;;;;20.20;99.90;;;;;;5092287;28;20357;-73
2022/08/20 09:19:00;;;;;;;;;;;20.30;99.90;;;;;;5091870;28;19912;-74
2022/08/20 09:21:26;;;;;;;;;;;20.30;99.90;;;;;;5091807;28;19912;-74
2022/08/20 09:23:51;;;;;;;;;;;20.20;99.90;;;;;;5092698;28;20353;-73
2022/08/20 09:26:17;;;;;;;;;;;20.10;99.90;;;;;;5091986;28;19912;-73
2022/08/20 09:28:43;;;;;;;;;;;20.10;99.90;;;;;;5092786;28;19909;-72
2022/08/20 09:31:08;;;;;;;;;;;19.90;99.90;;;;;;5092701;28;19961;-73
2022/08/20 09:33:34;;;;;;;;;;;19.80;99.90;;;;;;5092520;28;20491;-74
2022/08/20 09:35:59;;;;;;;;;;;19.70;99.90;;;;;;5096378;28;19912;-74
2022/08/20 09:38:25;;;;;;;;;;;19.70;99.90;;;;;;5095745;28;19912;-74
2022/08/20 09:40:50;;;;;;;;;;;19.80;99.90;;;;;;5095169;28;19915;-73
2022/08/20 09:43:16;;;;;;;;;;;19.70;99.90;;;;;;5095813;28;19950;-74
2022/08/20 09:45:41;;;;;;;;;;;20.00;99.90;;;;;;5096630;28;20303;-74
2022/08/20 09:48:07;;;;;;;;;;;20.20;99.90;;;;;;5096263;28;19915;-73
2022/08/20 09:50:35;;;;;;;;;;;20.40;99.90;;;;;;5095852;28;19966;-74
2022/08/20 09:53:01;;;;;;;;;;;20.70;99.90;;;;;;5096217;28;19915;-74
2022/08/20 09:55:31;;;;;;;;;;;20.90;99.90;;;;;;5095112;28;19930;-74
2022/08/20 09:57:58;;;;;;;;;;;21.20;99.90;;;;;;5095743;28;20283;-73
2022/08/20 10:00:24;;;;;;;;;;;21.20;99.90;;;;;;5095388;28;19908;-73
2022/08/20 10:02:49;;;;;;;;;;;21.20;99.90;;;;;;5095547;28;20275;-73
2022/08/20 10:05:15;;;;;;;;;;;21.10;99.90;;;;;;5094970;28;19908;-74
2022/08/20 10:07:41;;;;;;;;;;;20.90;99.90;;;;;;5094659;28;19935;-72
2022/08/20 10:10:08;;;;;;;;;;;20.80;99.90;;;;;;5095993;28;19916;-76
2022/08/20 10:12:34;;;;;;;;;;;20.70;99.90;;;;;;5094968;28;19904;-74
2022/08/20 10:15:00;;;;;;;;;;;20.60;99.90;;;;;;5095642;28;19980;-73
2022/08/20 10:17:25;;;;;;;;;;;20.70;99.90;;;;;;5095062;28;19912;-73
2022/08/20 10:19:51;;;;;;;;;;;20.60;99.90;;;;;;5095672;28;19915;-73
2022/08/20 10:22:16;;;;;;;;;;;20.50;99.90;;;;;;5094903;28;19998;-74
2022/08/20 10:24:42;;;;;;;;;;;20.40;99.90;;;;;;5095545;28;19908;-74
2022/08/20 10:27:07;;;;;;;;;;;20.40;99.90;;;;;;5094112;28;19908;-74
2022/08/20 10:29:33;;;;;;;;;;;20.30;99.90;;;;;;5094809;28;19908;-74
2022/08/20 10:32:11;;;;;;;;;;;20.30;99.90;;;;;;5095389;28;19911;-73
2022/08/20 10:34:37;;;;;;;;;;;20.30;99.90;;;;;;5094371;28;19916;-74
2022/08/20 10:37:03;;;;;;;;;;;20.20;99.90;;;;;;5094015;28;19954;-74
2022/08/20 10:39:29;;;;;;;;;;;20.30;99.90;;;;;;5094540;28;20338;-73
2022/08/20 10:41:54;;;;;;;;;;;20.40;99.90;;;;;;5095455;28;19908;-73
2022/08/20 10:44:20;;;;;;;;;;;20.50;99.90;;;;;;5093931;28;19944;-74
2022/08/20 10:46:45;;;;;;;;;;;20.60;99.90;;;;;;5095067;28;19990;-73
2022/08/20 10:49:11;;;;;;;;;;;20.80;99.90;;;;;;5095095;28;19998;-74
2022/08/20 10:51:36;;;;;;;;;;;20.80;99.90;;;;;;5094304;28;19915;-74
2022/08/20 10:54:02;;;;;;;;;;;20.90;99.90;;;;;;5094818;28;20391;-74
2022/08/20 10:56:27;;;;;;;;;;;20.90;99.90;;;;;;5094269;28;19912;-74
2022/08/20 10:58:53;;;;;;;;;;;20.80;99.90;;;;;;5094638;28;20269;-74
2022/08/20 11:01:18;;;;;;;;;;;20.90;99.90;;;;;;5092596;28;19911;-74
2022/08/20 11:03:44;;;;;;;;;;;20.90;99.90;;;;;;5094683;28;19915;-74
2022/08/20 11:06:10;;;;;;;;;;;21.00;99.90;;;;;;5094408;28;20398;-74
2022/08/20 11:08:35;;;;;;;;;;;21.00;99.90;;;;;;5093872;28;19909;-74
2022/08/20 11:11:01;;;;;;;;;;;20.90;99.90;;;;;;5094743;28;19908;-74
2022/08/20 11:13:26;;;;;;;;;;;20.90;99.90;;;;;;5094000;28;20014;-75
2022/08/20 11:15:52;;;;;;;;;;;21.00;99.90;;;;;;5094041;28;19912;-74
2022/08/20 11:18:18;;;;;;;;;;;21.10;99.90;;;;;;5094316;28;20341;-75
2022/08/20 11:20:43;;;;;;;;;;;21.20;99.90;;;;;;5093984;28;19908;-75
2022/08/20 11:23:09;;;;;;;;;;;21.30;99.90;;;;;;5094868;28;20407;-75
2022/08/20 11:25:35;;;;;;;;;;;21.50;99.90;;;;;;5093458;28;19912;-75
2022/08/20 11:28:00;;;;;;;;;;;21.60;99.90;;;;;;5094452;28;20290;-74
2022/08/20 11:30:27;;;;;;;;;;;21.60;99.90;;;;;;5094002;28;19940;-75
2022/08/20 11:32:53;;;;;;;;;;;21.70;99.90;;;;;;5094670;28;20307;-74
2022/08/20 11:35:22;;;;;;;;;;;21.80;99.90;;;;;;5094342;28;19920;-74
2022/08/20 11:37:48;;;;;;;;;;;21.70;99.90;;;;;;5094710;28;19915;-75
2022/08/20 11:40:14;;;;;;;;;;;21.50;99.90;;;;;;5094461;28;19909;-74
2022/08/20 11:42:40;;;;;;;;;;;21.40;99.90;;;;;;5094854;28;20045;-74
2022/08/20 11:45:06;;;;;;;;;;;21.20;99.90;;;;;;5095824;28;20276;-75
2022/08/20 11:47:34;;;;;;;;;;;21.10;99.90;;;;;;5095310;28;19908;-74
2022/08/20 11:50:01;;;;;;;;;;;21.20;99.90;;;;;;5095701;28;19959;-75
2022/08/20 11:52:27;;;;;;;;;;;21.30;99.90;;;;;;5095184;28;19912;-74
2022/08/20 11:54:53;;;;;;;;;;;21.40;99.90;;;;;;5093819;28;19909;-75
2022/08/20 11:57:20;;;;;;;;;;;21.60;99.90;;;;;;5093104;28;19908;-74
2022/08/20 11:59:49;;;;;;;;;;;21.80;99.90;;;;;;5093079;28;19908;-75
2022/08/20 12:02:15;;;;;;;;;;;22.10;99.90;;;;;;5093978;28;20353;-74
2022/08/20 12:04:41;;;;;;;;;;;22.30;99.90;;;;;;5093323;28;19908;-76
2022/08/20 12:07:17;;;;;;;;;;;22.50;99.90;;;;;;5094689;28;19912;-74
2022/08/20 12:09:43;;;;;;;;;;;22.60;99.90;;;;;;5092610;28;19904;-74
2022/08/20 12:12:08;;;;;;;;;;;22.70;99.90;;;;;;5093360;28;20019;-74
2022/08/20 12:14:34;;;;;;;;;;;22.70;99.90;;;;;;5092494;28;20355;-74
2022/08/20 12:17:09;;;;;;;;;;;22.60;99.90;;;;;;5093161;28;19916;-74
2022/08/20 12:19:38;;;;;;;;;;;22.70;99.90;;;;;;5092858;28;19908;-74
2022/08/20 12:22:04;;;;;;;;;;;22.60;99.90;;;;;;5093162;28;19958;-74
2022/08/20 12:24:30;;;;;;;;;;;22.60;99.90;;;;;;5092773;28;19909;-75
2022/08/20 12:27:06;;;;;;;;;;;22.70;99.90;;;;;;5093261;28;20004;-75
2022/08/20 12:29:32;;;;;;;;;;;22.80;99.90;;;;;;5092706;28;19908;-75
2022/08/20 12:31:57;;;;;;;;;;;22.60;99.90;;;;;;5092906;28;20410;-75
2022/08/20 12:34:23;;;;;;;;;;;22.60;99.90;;;;;;5092862;28;19935;-75
2022/08/20 12:36:49;;;;;;;;;;;22.60;99.90;;;;;;5092401;28;19917;-76
2022/08/20 12:39:14;;;;;;;;;;;22.50;99.90;;;;;;5093378;28;19908;-75
2022/08/20 12:41:40;;;;;;;;;;;22.50;99.90;;;;;;5092369;28;20357;-76
2022/08/20 12:44:05;;;;;;;;;;;22.60;99.90;;;;;;5092916;28;19908;-75
2022/08/20 12:46:31;;;;;;;;;;;22.60;99.90;;;;;;5092002;28;19909;-75
2022/08/20 12:48:56;;;;;;;;;;;22.60;99.90;;;;;;5093250;28;20002;-74
2022/08/20 12:51:22;;;;;;;;;;;22.70;99.90;;;;;;5092793;28;20315;-73
2022/08/20 12:53:48;;;;;;;;;;;22.70;99.90;;;;;;5092470;28;19908;-74
2022/08/20 12:56:13;;;;;;;;;;;22.50;99.90;;;;;;5092431;28;19916;-74
2022/08/20 12:58:39;;;;;;;;;;;22.50;99.90;;;;;;5092127;28;19954;-74
2022/08/20 13:01:04;;;;;;;;;;;22.60;99.90;;;;;;5092768;28;19909;-74
2022/08/20 13:03:30;;;;;;;;;;;22.70;99.90;;;;;;5092016;28;19915;-74
2022/08/20 13:05:59;;;;;;;;;;;22.90;99.90;;;;;;5092597;28;20277;-74
2022/08/20 13:08:25;;;;;;;;;;;22.80;99.90;;;;;;5093950;28;19908;-74
2022/08/20 13:10:50;;;;;;;;;;;22.80;99.90;;;;;;5096192;28;20053;-74
2022/08/20 13:13:16;;;;;;;;;;;23.00;99.90;;;;;;5096607;28;19909;-76
2022/08/20 13:15:42;;;;;;;;;;;23.10;99.90;;;;;;5096147;28;20425;-75
2022/08/20 13:18:08;;;;;;;;;;;23.30;99.90;;;;;;5097069;28;19908;-75
2022/08/20 13:20:34;;;;;;;;;;;23.30;99.90;;;;;;5096239;28;19908;-75
2022/08/20 13:22:59;;;;;;;;;;;23.40;99.90;;;;;;5096333;28;19908;-75
2022/08/20 13:25:25;;;;;;;;;;;23.60;99.90;;;;;;5096728;28;20069;-74
2022/08/20 13:27:55;;;;;;;;;;;23.80;99.90;;;;;;5096092;28;19908;-75
2022/08/20 13:30:21;;;;;;;;;;;23.90;99.90;;;;;;5096818;28;20345;-76
2022/08/20 13:32:47;;;;;;;;;;;23.70;99.90;;;;;;5095671;28;19961;-74
2022/08/20 13:35:13;;;;;;;;;;;23.40;99.90;;;;;;5096032;28;19920;-74
2022/08/20 13:37:40;;;;;;;;;;;23.20;99.90;;;;;;5095577;28;19977;-75
2022/08/20 13:40:07;;;;;;;;;;;23.00;99.90;;;;;;5095385;28;19912;-73
2022/08/20 13:42:33;;;;;;;;;;;22.90;99.90;;;;;;5095685;28;19908;-75
2022/08/20 13:44:58;;;;;;;;;;;22.70;99.90;;;;;;5095866;28;20383;-75
2022/08/20 13:47:25;;;;;;;;;;;22.70;99.90;;;;;;5095830;28;19990;-75
2022/08/20 13:49:55;;;;;;;;;;;22.60;99.90;;;;;;5095531;28;19953;-75
2022/08/20 13:52:21;;;;;;;;;;;22.60;99.90;;;;;;5095897;28;19908;-75
2022/08/20 13:54:46;;;;;;;;;;;22.70;99.90;;;;;;5095420;28;19958;-75
2022/08/20 13:57:13;;;;;;;;;;;22.90;99.90;;;;;;5095914;28;20357;-74
2022/08/20 13:59:40;;;;;;;;;;;23.00;99.90;;;;;;5095439;28;19908;-74
2022/08/20 14:02:06;;;;;;;;;;;22.90;99.90;;;;;;5094659;28;19922;-74
2022/08/20 14:04:32;;;;;;;;;;;23.10;99.90;;;;;;5094994;28;19908;-75
2022/08/20 14:07:07;;;;;;;;;;;23.00;99.90;;;;;;5095378;28;19916;-74
2022/08/20 14:09:32;;;;;;;;;;;23.20;99.90;;;;;;5095297;28;20273;-75
2022/08/20 14:11:58;;;;;;;;;;;23.40;99.90;;;;;;5095811;28;19909;-75
2022/08/20 14:14:23;;;;;;;;;;;23.40;99.90;;;;;;5095745;28;20268;-75
2022/08/20 14:16:49;;;;;;;;;;;23.30;99.90;;;;;;5094759;28;19985;-75
2022/08/20 14:19:14;;;;;;;;;;;23.40;99.90;;;;;;5095130;28;19998;-76